createdAt,value
2022-08-17T00:01:24.400Z,11.15
2022-08-17T00:05:33.187Z,13.38
2022-08-17T00:09:34.625Z,11.30
2022-08-17T00:13:43.274Z,13.15
2022-08-17T00:17:50.762Z,13.00
2022-08-17T00:22:31.114Z,10.10
2022-08-17T00:26:35.854Z,11.13
2022-08-17T00:30:53.011Z,15.77
2022-08-17T00:34:55.102Z,14.50
2022-08-17T00:38:56.667Z,12.38
2022-08-17T00:43:09.599Z,11.07
2022-08-17T00:47:13.448Z,10.93
2022-08-17T00:51:36.235Z,9.50
2022-08-17T00:55:37.710Z,12.05
2022-08-17T00:59:44.230Z,10.15
2022-08-17T01:03:45.917Z,10.93
2022-08-17T01:07:50.804Z,10.18
2022-08-17T01:11:52.503Z,11.18
2022-08-17T01:16:05.188Z,11.80
2022-08-17T01:20:07.081Z,11.05
2022-08-17T01:24:08.789Z,12.68
2022-08-17T01:28:10.455Z,11.15
2022-08-17T01:32:32.178Z,11.55
2022-08-17T01:36:33.650Z,11.00
2022-08-17T01:40:39.062Z,12.23
2022-08-17T01:44:40.942Z,13.57
2022-08-17T01:48:43.611Z,13.27
2022-08-17T01:52:49.238Z,12.90
2022-08-17T01:56:52.098Z,17.02
2022-08-17T02:01:00.184Z,12.35
2022-08-17T02:05:02.897Z,11.90
2022-08-17T02:09:05.954Z,11.80
2022-08-17T02:13:07.445Z,13.68
2022-08-17T02:17:08.888Z,11.45
2022-08-17T02:21:10.727Z,11.15
2022-08-17T02:25:16.572Z,12.98
2022-08-17T02:29:18.371Z,16.88
2022-08-17T02:33:19.927Z,12.65
2022-08-17T02:37:21.917Z,11.18
2022-08-17T02:41:23.367Z,11.82
2022-08-17T02:45:25.998Z,13.63
2022-08-17T02:49:27.467Z,12.10
2022-08-17T02:53:33.671Z,12.43
2022-08-17T02:57:37.734Z,12.45
2022-08-17T03:01:39.285Z,13.45
2022-08-17T03:05:40.889Z,16.88
2022-08-17T03:09:42.689Z,15.98
2022-08-17T03:13:44.144Z,13.15
2022-08-17T03:17:46.089Z,13.85
2022-08-17T03:21:47.520Z,12.95
2022-08-17T03:25:58.050Z,14.40
2022-08-17T03:29:59.524Z,14.73
2022-08-17T03:34:01.111Z,14.23
2022-08-17T03:38:03.357Z,14.90
2022-08-17T03:42:32.095Z,14.40
2022-08-17T03:46:52.943Z,13.38
2022-08-17T03:51:14.924Z,13.02
2022-08-17T03:55:36.310Z,18.58
2022-08-17T03:59:38.725Z,14.70
2022-08-17T04:03:40.544Z,11.48
2022-08-17T04:07:42.003Z,14.88
2022-08-17T04:11:43.676Z,12.00
2022-08-17T04:15:47.091Z,17.48
2022-08-17T04:19:48.595Z,13.93
2022-08-17T04:23:50.562Z,17.92
2022-08-17T04:27:52.298Z,14.80
2022-08-17T04:31:53.888Z,15.02
2022-08-17T04:35:59.249Z,16.65
2022-08-17T04:40:19.415Z,15.05
2022-08-17T04:44:37.088Z,19.02
2022-08-17T04:48:42.878Z,18.23
2022-08-17T04:52:47.193Z,19.42
2022-08-17T04:56:48.732Z,18.67
2022-08-17T05:00:50.612Z,22.30
2022-08-17T05:04:52.302Z,20.27
2022-08-17T05:08:54.577Z,17.48
2022-08-17T05:13:00.863Z,17.25
2022-08-17T05:17:07.475Z,18.73
2022-08-17T05:21:13.619Z,21.42
2022-08-17T05:25:15.105Z,20.45
2022-08-17T05:29:16.554Z,21.70
2022-08-17T05:33:21.654Z,18.42
2022-08-17T05:37:23.095Z,17.83
2022-08-17T05:41:24.546Z,19.13
2022-08-17T05:45:55.678Z,18.60
2022-08-17T05:49:49.102Z,18.67
2022-08-17T05:54:00.510Z,24.98
2022-08-17T05:58:19.326Z,18.45
2022-08-17T06:03:03.493Z,17.15
2022-08-17T06:07:16.513Z,18.38
2022-08-17T06:11:55.435Z,21.23
2022-08-17T06:16:32.880Z,13.20
2022-08-17T06:20:44.973Z,16.13
2022-08-17T06:25:15.536Z,15.88
2022-08-17T06:29:29.302Z,17.63
2022-08-17T06:33:39.388Z,14.68
2022-08-17T06:37:57.602Z,12.43
2022-08-17T06:42:54.996Z,8.57
2022-08-17T06:47:07.148Z,11.60
2022-08-17T06:51:22.739Z,13.65
2022-08-17T06:55:37.832Z,10.10
2022-08-17T07:00:04.941Z,11.35
2022-08-17T07:04:18.915Z,16.52
2022-08-17T07:08:45.651Z,9.75
2022-08-17T07:12:48.489Z,10.13
2022-08-17T07:16:56.129Z,9.95
2022-08-17T07:21:05.611Z,10.18
2022-08-17T07:25:09.838Z,7.57
2022-08-17T07:29:19.622Z,7.18
2022-08-17T07:33:26.954Z,10.95
2022-08-17T07:37:28.450Z,7.35
2022-08-17T07:41:53.335Z,7.13
2022-08-17T07:46:39.751Z,7.57
2022-08-17T07:50:41.203Z,9.48
2022-08-17T07:54:48.979Z,6.70
2022-08-17T07:59:06.592Z,5.90
2022-08-17T08:03:28.541Z,9.15
2022-08-17T08:07:38.125Z,10.95
2022-08-17T08:11:44.125Z,11.50
2022-08-17T08:15:55.402Z,5.20
2022-08-17T08:19:59.868Z,5.95
2022-08-17T08:24:07.023Z,7.20
2022-08-17T08:28:25.333Z,4.68
2022-08-17T08:32:57.225Z,4.05
2022-08-17T08:37:36.689Z,4.97
2022-08-17T08:41:58.846Z,3.97
2022-08-17T08:46:16.037Z,4.97
2022-08-17T08:50:40.372Z,5.30
2022-08-17T08:54:55.918Z,6.03
2022-08-17T08:59:00.222Z,6.60
2022-08-17T09:03:52.810Z,4.40
2022-08-17T09:08:20.009Z,4.68
2022-08-17T09:12:29.167Z,4.43
2022-08-17T09:16:40.475Z,8.60
2022-08-17T09:20:56.251Z,5.03
2022-08-17T09:25:09.956Z,4.03
2022-08-17T09:29:14.567Z,5.43
2022-08-17T09:33:23.124Z,5.97
2022-08-17T09:37:32.547Z,5.90
2022-08-17T09:41:52.867Z,4.35
2022-08-17T09:46:03.894Z,5.70
2022-08-17T09:51:05.223Z,6.30
2022-08-17T09:54:44.983Z,7.20
2022-08-17T09:59:05.067Z,4.32
2022-08-17T10:03:16.195Z,5.53
2022-08-17T10:07:43.904Z,5.18
2022-08-17T10:12:12.505Z,3.40
2022-08-17T10:16:32.640Z,8.38
2022-08-17T10:21:19.637Z,2.90
2022-08-17T10:25:54.246Z,3.88
2022-08-17T10:30:01.285Z,4.70
2022-08-17T10:34:24.235Z,6.13
2022-08-17T10:39:08.534Z,4.03
2022-08-17T10:43:32.833Z,5.18
2022-08-17T10:48:06.292Z,4.85
2022-08-17T10:52:20.614Z,7.13
2022-08-17T10:56:24.408Z,2.75
2022-08-17T11:00:27.851Z,5.57
2022-08-17T11:04:44.843Z,5.05
2022-08-17T11:09:02.646Z,3.60
2022-08-17T11:13:41.179Z,5.28
2022-08-17T11:17:52.009Z,5.30
2022-08-17T11:22:31.308Z,4.57
2022-08-17T11:26:38.358Z,7.57
2022-08-17T11:30:50.219Z,6.07
2022-08-17T11:35:25.296Z,5.00
2022-08-17T11:40:06.468Z,4.47
2022-08-17T11:44:19.931Z,4.80
2022-08-17T11:49:17.934Z,3.97
2022-08-17T11:53:39.591Z,4.90
2022-08-17T11:57:41.013Z,3.47
2022-08-17T12:01:57.089Z,12.45
2022-08-17T12:06:19.847Z,4.15
2022-08-17T12:10:32.316Z,7.05
2022-08-17T12:15:08.547Z,4.85
2022-08-17T12:18:59.818Z,4.10
2022-08-17T12:23:32.018Z,6.40
2022-08-17T12:27:47.705Z,4.25
2022-08-17T12:31:58.994Z,5.57
2022-08-17T12:36:07.461Z,7.05
2022-08-17T12:40:27.071Z,3.65
2022-08-17T12:44:35.984Z,5.60
2022-08-17T12:48:59.554Z,4.50
2022-08-17T12:53:02.804Z,5.60
2022-08-17T12:57:17.283Z,4.97
2022-08-17T13:01:19.621Z,8.73
2022-08-17T13:05:37.375Z,3.83
2022-08-17T13:09:40.767Z,4.25
2022-08-17T13:13:45.682Z,4.85
2022-08-17T13:17:56.714Z,4.55
2022-08-17T13:22:01.376Z,9.63
2022-08-17T13:30:12.121Z,4.00
2022-08-17T13:34:17.618Z,4.38
2022-08-17T13:38:47.194Z,2.80
2022-08-17T13:42:53.979Z,2.53
2022-08-17T13:46:57.406Z,5.97
2022-08-17T13:50:59.503Z,4.05
2022-08-17T13:55:07.710Z,3.08
2022-08-17T13:59:16.554Z,5.80
2022-08-17T14:03:35.801Z,4.18
2022-08-17T14:07:40.318Z,3.65
2022-08-17T14:11:43.115Z,2.72
2022-08-17T14:15:55.063Z,3.17
2022-08-17T14:19:58.997Z,3.90
2022-08-17T14:24:00.487Z,4.93
2022-08-17T14:28:05.594Z,4.80
2022-08-17T14:32:21.016Z,4.20
2022-08-17T14:36:22.605Z,3.85
2022-08-17T14:40:25.412Z,6.85
2022-08-17T14:44:26.874Z,5.40
2022-08-17T14:48:29.413Z,5.07
2022-08-17T14:52:31.533Z,2.85
2022-08-17T14:56:37.820Z,3.83
2022-08-17T15:00:40.838Z,3.47
2022-08-17T15:04:45.656Z,5.68
2022-08-17T15:08:47.294Z,3.75
2022-08-17T15:12:49.070Z,9.20
2022-08-17T15:16:50.526Z,7.78
2022-08-17T15:20:52.573Z,4.47
2022-08-17T15:24:55.698Z,4.90
2022-08-17T15:28:57.314Z,5.85
2022-08-17T15:32:59.619Z,6.00
2022-08-17T15:37:02.496Z,3.75
2022-08-17T15:41:03.976Z,3.30
2022-08-17T15:45:09.543Z,8.85
2022-08-17T15:49:11.192Z,3.17
2022-08-17T15:53:12.654Z,7.70
2022-08-17T15:57:15.831Z,3.63
2022-08-17T16:02:21.594Z,4.60
2022-08-17T16:05:42.110Z,5.80
2022-08-17T16:09:44.995Z,4.82
2022-08-17T16:13:54.765Z,7.15
2022-08-17T16:17:56.937Z,3.60
2022-08-17T16:21:58.474Z,6.00
2022-08-17T16:25:59.946Z,4.75
2022-08-17T16:30:02.039Z,3.80
2022-08-17T16:34:16.306Z,6.10
2022-08-17T16:38:20.467Z,4.15
2022-08-17T16:42:28.381Z,5.22
2022-08-17T16:46:29.982Z,4.47
2022-08-17T16:50:32.227Z,4.22
2022-08-17T16:54:35.184Z,5.22
2022-08-17T16:58:37.601Z,5.80
2022-08-17T17:02:47.090Z,4.75
2022-08-17T17:07:02.555Z,4.32
2022-08-17T17:11:12.603Z,4.43
2022-08-17T17:15:17.655Z,4.43
2022-08-17T17:19:35.204Z,5.55
2022-08-17T17:23:51.301Z,4.78
2022-08-17T17:28:01.888Z,4.53
2022-08-17T17:32:38.775Z,7.00
2022-08-17T17:36:47.075Z,6.47
2022-08-17T17:40:54.908Z,3.95
2022-08-17T17:45:09.423Z,3.55
2022-08-17T17:49:14.091Z,7.80
2022-08-17T17:53:35.176Z,8.73
2022-08-17T17:58:13.385Z,4.88
2022-08-17T18:02:52.056Z,6.53
2022-08-17T18:07:05.812Z,5.60
2022-08-17T18:15:51.453Z,5.20
2022-08-17T18:19:55.601Z,9.18
2022-08-17T18:24:03.004Z,6.38
2022-08-17T18:28:04.863Z,10.05
2022-08-17T18:32:29.856Z,7.68
2022-08-17T18:36:39.891Z,7.00
2022-08-17T18:40:41.391Z,10.00
2022-08-17T18:44:44.661Z,11.07
2022-08-17T18:48:52.678Z,8.15
2022-08-17T18:53:14.640Z,6.55
2022-08-17T18:57:37.855Z,9.38
2022-08-17T19:01:53.270Z,9.55
2022-08-17T19:06:17.111Z,7.65
2022-08-17T19:10:46.101Z,9.50
2022-08-17T19:14:49.931Z,8.55
2022-08-17T19:19:09.984Z,8.23
2022-08-17T19:23:40.309Z,9.00
2022-08-17T19:28:22.272Z,8.98
2022-08-17T19:32:31.652Z,6.30
2022-08-17T19:36:53.233Z,7.70
2022-08-17T19:41:07.106Z,5.75
2022-08-17T19:45:15.797Z,6.07
2022-08-17T19:49:49.716Z,9.68
2022-08-17T19:54:31.006Z,9.13
2022-08-17T19:58:45.712Z,7.15
2022-08-17T20:02:51.571Z,6.55
2022-08-17T20:06:53.663Z,10.18
2022-08-17T20:11:15.040Z,9.57
2022-08-17T20:15:28.489Z,9.40
2022-08-17T20:19:53.428Z,9.55
2022-08-17T20:24:20.178Z,8.80
2022-08-17T20:28:27.943Z,7.05
2022-08-17T20:32:35.263Z,7.15
2022-08-17T20:36:57.913Z,7.20
2022-08-17T20:41:02.519Z,7.47
2022-08-17T20:45:24.708Z,9.00
2022-08-17T20:50:07.037Z,10.27
2022-08-17T20:54:17.867Z,16.13
2022-08-17T20:58:25.184Z,9.82
2022-08-17T21:02:32.821Z,8.23
2022-08-17T21:06:34.358Z,10.80
2022-08-17T21:10:37.323Z,8.73
2022-08-17T21:14:57.346Z,11.20
2022-08-17T21:19:10.900Z,7.10
2022-08-17T21:23:42.179Z,10.32
2022-08-17T21:27:53.118Z,8.70
2022-08-17T21:32:03.666Z,9.80
2022-08-17T21:36:12.638Z,11.38
2022-08-17T21:40:14.848Z,8.10
2022-08-17T21:44:31.335Z,6.78
2022-08-17T21:48:43.099Z,6.70
2022-08-17T21:52:44.942Z,7.28
2022-08-17T21:56:48.294Z,7.38
2022-08-17T22:01:21.094Z,8.65
2022-08-17T22:05:37.072Z,7.10
2022-08-17T22:09:48.398Z,7.95
2022-08-17T22:13:49.860Z,7.18
2022-08-17T22:22:09.012Z,8.27
2022-08-17T22:26:13.648Z,8.05
2022-08-17T22:30:30.110Z,5.88
2022-08-17T22:34:31.629Z,6.60
2022-08-17T22:38:33.273Z,6.85
2022-08-17T22:42:47.251Z,10.05
2022-08-17T22:47:11.259Z,7.78
2022-08-17T22:51:17.479Z,9.13
2022-08-17T22:55:37.720Z,9.65
2022-08-17T22:59:50.473Z,9.77
2022-08-17T23:04:01.252Z,8.18
2022-08-17T23:08:03.504Z,9.00
2022-08-17T23:12:13.602Z,8.25
2022-08-17T23:16:15.111Z,6.95
2022-08-17T23:20:17.587Z,7.63
2022-08-17T23:24:28.196Z,7.55
2022-08-17T23:28:29.658Z,8.38
2022-08-17T23:32:31.554Z,9.40
2022-08-17T23:36:32.964Z,7.60
2022-08-17T23:40:34.558Z,7.28
2022-08-17T23:44:37.507Z,6.78
2022-08-17T23:48:41.019Z,10.88
2022-08-17T23:52:43.614Z,10.43
2022-08-17T23:56:47.733Z,9.27
